Time;durP1;ratioP1;P1;durP2;ratioP2;P2;SDS_P1;SDS_P2;PMS_P1;PMS_P2;Temp;Humidity;BMP_temperature;BMP_pressure;BME280_temperature;BME280_humidity;BME280_pressure;Samples;Min_cycle;Max_cycle;Signal;HPM_P1;HPM_P2
2023/07/28 00:01:47;;;;;;;9.10;8.20;;;;;;;16.41;100.00;100355.38;5282598;28;20025;-73
2023/07/28 00:04:18;;;;;;;11.33;8.60;;;;;;;16.43;100.00;100352.69;5282804;28;20024;-72
2023/07/28 00:06:49;;;;;;;8.73;7.83;;;;;;;16.40;100.00;100356.31;5282420;28;20032;-73
2023/07/28 00:09:22;;;;;;;10.43;9.03;;;;;;;16.40;100.00;100356.31;5282800;28;20347;-74
2023/07/28 00:11:56;;;;;;;9.65;8.65;;;;;;;16.40;100.00;100348.44;5282643;28;20036;-73
2023/07/28 00:14:28;;;;;;;10.52;9.43;;;;;;;16.41;100.00;100349.28;5281988;28;20021;-72
2023/07/28 00:16:59;;;;;;;10.55;9.45;;;;;;;16.45;100.00;100352.63;5282129;28;20379;-73
2023/07/28 00:19:31;;;;;;;10.27;8.47;;;;;;;16.43;100.00;100346.56;5282486;28;20422;-73
2023/07/28 00:22:02;;;;;;;9.63;8.20;;;;;;;16.43;100.00;100346.56;5286397;28;20047;-72
2023/07/28 00:24:34;;;;;;;11.20;9.00;;;;;;;16.40;100.00;100345.81;5286083;28;20024;-72
2023/07/28 00:27:05;;;;;;;9.70;8.73;;;;;;;16.45;100.00;100348.19;5286479;28;20081;-72
2023/07/28 00:29:37;;;;;;;12.03;9.23;;;;;;;16.45;100.00;100349.97;5285208;28;20036;-72
2023/07/28 00:32:08;;;;;;;13.87;9.97;;;;;;;16.42;100.00;100345.69;5286433;28;20266;-72
2023/07/28 00:34:40;;;;;;;11.27;10.17;;;;;;;16.44;100.00;100353.53;5286263;28;20032;-72
2023/07/28 00:37:11;;;;;;;10.43;9.33;;;;;;;16.45;100.00;100349.97;5286073;28;20025;-72
2023/07/28 00:39:42;;;;;;;10.97;9.67;;;;;;;16.46;100.00;100354.34;5286071;28;20060;-73
2023/07/28 00:42:14;;;;;;;11.07;9.80;;;;;;;16.45;100.00;100353.47;5284714;28;20347;-73
2023/07/28 00:44:45;;;;;;;11.47;10.27;;;;;;;16.45;100.00;100350.81;5284461;28;20054;-73
2023/07/28 00:47:16;;;;;;;12.03;10.70;;;;;;;16.42;100.00;100345.69;5286359;28;20056;-73
2023/07/28 00:49:48;;;;;;;11.43;10.27;;;;;;;16.43;100.00;100341.31;5285778;28;20108;-73
2023/07/28 00:52:19;;;;;;;11.60;10.30;;;;;;;16.43;100.00;100343.94;5285786;28;20089;-73
2023/07/28 00:54:51;;;;;;;12.43;11.17;;;;;;;16.44;100.00;100340.38;5285767;28;20033;-72
2023/07/28 00:57:22;;;;;;;13.10;11.83;;;;;;;16.41;100.00;100330.84;5285723;28;20067;-73
2023/07/28 00:59:53;;;;;;;14.57;12.50;;;;;;;16.44;100.00;100340.38;5285642;28;20032;-73
2023/07/28 01:02:25;;;;;;;12.70;11.40;;;;;;;16.44;100.00;100337.75;5285739;28;20028;-73
2023/07/28 01:04:58;;;;;;;14.93;12.50;;;;;;;16.41;100.00;100333.50;5285542;28;20040;-74
2023/07/28 01:07:56;;;;;;;;;;;;;;;16.43;100.00;100341.31;5286167;28;20024;-74
2023/07/28 01:10:34;;;;;;;12.63;11.20;;;;;;;16.44;100.00;100343.00;5282459;28;20341;-73
2023/07/28 01:13:06;;;;;;;13.60;12.20;;;;;;;16.44;100.00;100349.13;5285449;28;20032;-73
2023/07/28 01:15:37;;;;;;;13.47;12.07;;;;;;;16.45;100.00;100356.09;5285126;28;20047;-73
2023/07/28 01:18:09;;;;;;;13.23;11.87;;;;;;;16.45;100.00;100345.56;5285013;28;20060;-73
2023/07/28 01:20:40;;;;;;;15.03;12.07;;;;;;;16.48;100.00;100349.84;5285027;28;20422;-72
2023/07/28 01:23:19;;;;;;;15.50;12.13;;;;;;;16.47;100.00;100349.00;5285470;28;20079;-73
2023/07/28 01:26:07;;;;;;;12.80;11.45;;;;;;;16.48;100.00;100350.69;5285466;28;20412;-74
2023/07/28 01:28:41;;;;;;;12.40;11.10;;;;;;;16.49;100.00;100357.69;5285379;28;20024;-73
2023/07/28 01:31:12;;;;;;;14.98;12.10;;;;;;;16.47;100.00;100356.03;5285083;28;20399;-73
2023/07/28 01:33:43;;;;;;;14.57;10.67;;;;;;;16.48;100.00;100358.59;5300759;28;20135;-74
2023/07/28 01:36:15;;;;;;;15.53;12.27;;;;;;;16.48;100.00;100355.13;5284965;28;20329;-72
2023/07/28 01:38:46;;;;;;;13.97;11.03;;;;;;;16.52;100.00;100356.69;5285160;28;20367;-72
2023/07/28 01:41:18;;;;;;;13.33;10.57;;;;;;;16.51;100.00;100354.97;5285015;28;20055;-72
2023/07/28 01:43:49;;;;;;;12.47;11.20;;;;;;;16.51;100.00;100361.09;5283684;28;20109;-72
2023/07/28 01:46:21;;;;;;;12.53;10.70;;;;;;;16.52;100.00;100354.06;5284467;28;20143;-73
2023/07/28 01:48:52;;;;;;;11.63;10.20;;;;;;;16.52;100.00;100362.81;5284954;28;20372;-74
2023/07/28 01:51:24;;;;;;;12.57;11.03;;;;;;;16.52;100.00;100354.06;5284547;28;20033;-74
2023/07/28 01:54:14;;;;;;;13.57;12.07;;;;;;;16.53;100.00;100364.50;5285306;28;20048;-73
2023/07/28 01:56:45;;;;;;;13.68;11.45;;;;;;;16.53;100.00;100361.03;5283401;28;20024;-71
2023/07/28 01:59:16;;;;;;;15.93;12.70;;;;;;;16.52;100.00;100352.28;5283288;28;20360;-72
2023/07/28 02:01:48;;;;;;;15.60;12.10;;;;;;;16.55;100.00;100361.78;5284868;28;20052;-73
2023/07/28 02:04:19;;;;;;;15.20;13.03;;;;;;;16.54;100.00;100358.31;5284625;28;20452;-72
2023/07/28 02:06:50;;;;;;;17.13;12.77;;;;;;;16.54;100.00;100360.09;5284598;28;20028;-73
2023/07/28 02:09:22;;;;;;;16.97;13.93;;;;;;;16.53;100.00;100359.22;5284523;28;20035;-74
2023/07/28 02:11:53;;;;;;;16.30;13.63;;;;;;;16.53;100.00;100353.97;5284497;28;20024;-72
2023/07/28 02:14:25;;;;;;;19.03;14.63;;;;;;;16.56;100.00;100353.00;5283799;28;20206;-72
2023/07/28 02:16:56;;;;;;;17.93;13.33;;;;;;;16.56;100.00;100356.47;5284214;28;20092;-73
2023/07/28 02:19:27;;;;;;;19.93;14.73;;;;;;;16.55;100.00;100351.28;5284244;28;20025;-73
2023/07/28 02:21:59;;;;;;;17.80;14.47;;;;;;;16.58;100.00;100356.41;5283776;28;20036;-72
2023/07/28 02:24:30;;;;;;;19.50;15.73;;;;;;;16.57;100.00;100346.81;5284106;28;20029;-72
2023/07/28 02:27:02;;;;;;;19.53;15.37;;;;;;;16.58;100.00;100361.66;5284283;28;20021;-73
2023/07/28 02:29:33;;;;;;;19.87;16.40;;;;;;;16.57;100.00;100360.81;5284002;28;20432;-72
2023/07/28 02:32:05;;;;;;;21.97;16.03;;;;;;;16.60;100.00;100357.22;5284150;28;20032;-73
2023/07/28 02:34:36;;;;;;;19.73;15.32;;;;;;;16.59;100.00;100361.59;5283589;28;20468;-73
2023/07/28 02:37:08;;;;;;;18.83;15.33;;;;;;;16.61;100.00;100356.25;5283962;28;20039;-73
2023/07/28 02:39:39;;;;;;;20.23;15.57;;;;;;;16.62;100.00;100363.25;5282434;28;20029;-74
2023/07/28 02:42:11;;;;;;;17.83;15.93;;;;;;;16.61;100.00;100363.31;5283661;28;20029;-73
2023/07/28 02:44:43;;;;;;;21.95;17.38;;;;;;;16.63;100.00;100359.72;5283064;28;20207;-72
2023/07/28 02:47:14;;;;;;;20.30;16.10;;;;;;;16.63;100.00;100366.72;5283309;28;20123;-73
2023/07/28 02:49:45;;;;;;;18.77;15.83;;;;;;;16.64;100.00;100361.41;5283781;28;20425;-73
2023/07/28 02:52:17;;;;;;;21.27;16.53;;;;;;;16.63;100.00;100367.59;5283871;28;20107;-73
2023/07/28 02:54:50;;;;;;;21.87;16.57;;;;;;;16.65;100.00;100376.28;5283383;28;20104;-73
2023/07/28 02:57:21;;;;;;;22.17;17.08;;;;;;;16.65;100.00;100368.38;5283681;28;20053;-74
2023/07/28 02:59:53;;;;;;;23.80;18.33;;;;;;;16.67;100.00;100377.06;5282317;28;20062;-73
2023/07/28 03:02:24;;;;;;;21.83;17.57;;;;;;;16.67;100.00;100379.69;5283433;28;20035;-74
2023/07/28 03:04:55;;;;;;;22.77;18.40;;;;;;;16.68;100.00;100380.53;5283683;28;20025;-73
2023/07/28 03:07:27;;;;;;;25.30;19.13;;;;;;;16.69;100.00;100384.88;5283607;28;20028;-73
2023/07/28 03:09:58;;;;;;;22.97;18.33;;;;;;;16.70;100.00;100382.19;5283534;28;20030;-72
2023/07/28 03:12:29;;;;;;;27.20;18.33;;;;;;;16.69;100.00;100377.81;5283569;28;20036;-72
2023/07/28 03:15:01;;;;;;;24.67;18.37;;;;;;;16.68;100.00;100372.63;5283335;28;20034;-72
2023/07/28 03:17:32;;;;;;;22.87;18.77;;;;;;;16.70;100.00;100376.91;5283464;28;20028;-73
2023/07/28 03:20:04;;;;;;;24.33;20.30;;;;;;;16.70;100.00;100386.59;5282138;28;20024;-73
2023/07/28 03:22:36;;;;;;;26.45;18.85;;;;;;;16.68;100.00;100377.91;5282975;28;20456;-73
2023/07/28 03:25:07;;;;;;;25.63;18.93;;;;;;;16.70;100.00;100381.34;5282206;28;20029;-73
2023/07/28 03:27:39;;;;;;;26.92;18.60;;;;;;;16.69;100.00;100387.50;5283128;28;20043;-73
2023/07/28 03:30:11;;;;;;;27.53;18.87;;;;;;;16.71;100.00;100383.91;5283017;28;20029;-73
2023/07/28 03:32:42;;;;;;;26.17;19.83;;;;;;;16.70;100.00;100386.59;5283200;28;20025;-72
2023/07/28 03:35:13;;;;;;;28.93;19.87;;;;;;;16.70;100.00;100386.59;5283023;28;20029;-72
2023/07/28 03:37:45;;;;;;;25.80;17.93;;;;;;;16.70;100.00;100387.44;5283046;28;20094;-73
2023/07/28 03:40:16;;;;;;;24.23;18.97;;;;;;;16.71;100.00;100393.56;5283060;28;20094;-73
2023/07/28 03:42:47;;;;;;;29.50;19.20;;;;;;;16.71;100.00;100388.28;5283010;28;20024;-73
2023/07/28 03:45:19;;;;;;;25.97;18.73;;;;;;;16.72;100.00;100401.38;5282214;28;20105;-73
2023/07/28 03:47:50;;;;;;;28.40;19.40;;;;;;;16.72;100.00;100406.66;5283314;28;20035;-72
2023/07/28 03:50:24;;;;;;;26.97;18.93;;;;;;;16.71;100.00;100402.31;5282926;28;20419;-74
2023/07/28 03:52:55;;;;;;;29.73;19.63;;;;;;;16.73;100.00;100416.25;5283017;28;20033;-72
2023/07/28 03:55:27;;;;;;;25.13;20.33;;;;;;;16.72;100.00;100414.53;5283043;28;20027;-73
2023/07/28 03:57:58;;;;;;;25.20;19.80;;;;;;;16.72;100.00;100417.16;5286715;28;20471;-73
2023/07/28 04:00:29;;;;;;;29.00;21.43;;;;;;;16.71;100.00;100409.34;5286673;28;20479;-73
2023/07/28 04:03:01;;;;;;;30.23;19.87;;;;;;;16.70;100.00;100413.75;5287003;28;20032;-73
2023/07/28 04:05:32;;;;;;;23.10;18.20;;;;;;;16.73;100.00;100412.78;5286758;28;20071;-74
2023/07/28 04:08:04;;;;;;;27.70;19.73;;;;;;;16.71;100.00;100420.75;5286711;28;20024;-74
2023/07/28 04:10:35;;;;;;;26.27;19.83;;;;;;;16.72;100.00;100416.31;5287261;28;20459;-73
2023/07/28 04:13:07;;;;;;;27.67;19.07;;;;;;;16.71;100.00;100414.59;5286948;28;20036;-73
2023/07/28 04:15:39;;;;;;;25.40;18.50;;;;;;;16.72;100.00;100411.06;5286502;28;20028;-73
2023/07/28 04:18:10;;;;;;;22.90;18.03;;;;;;;16.71;100.00;100410.22;5287094;28;20035;-74
2023/07/28 04:20:41;;;;;;;22.00;17.77;;;;;;;16.70;100.00;100407.66;5286849;28;20029;-73
2023/07/28 04:23:13;;;;;;;26.57;18.93;;;;;;;16.71;100.00;100407.59;5286333;28;20025;-73
2023/07/28 04:25:44;;;;;;;20.90;17.13;;;;;;;16.73;100.00;100410.16;5286567;28;20028;-74
2023/07/28 04:28:15;;;;;;;23.93;18.93;;;;;;;16.73;100.00;100411.00;5285335;28;20031;-75
2023/07/28 04:30:47;;;;;;;23.00;17.93;;;;;;;16.77;100.00;100415.19;5285301;28;20098;-76
2023/07/28 04:33:18;;;;;;;21.03;17.33;;;;;;;16.77;100.00;100420.44;5285307;28;20039;-73
2023/07/28 04:35:50;;;;;;;20.00;16.57;;;;;;;16.75;100.00;100413.56;5286392;28;20063;-74
2023/07/28 04:38:22;;;;;;;20.67;16.40;;;;;;;16.77;100.00;100420.44;5285180;28;20034;-73
2023/07/28 04:40:53;;;;;;;22.60;18.37;;;;;;;16.75;100.00;100414.41;5284824;28;20412;-73
2023/07/28 04:43:25;;;;;;;21.93;17.80;;;;;;;16.75;100.00;100414.41;5286187;28;20100;-73
2023/07/28 04:45:56;;;;;;;23.80;17.53;;;;;;;16.77;100.00;100419.59;5284420;28;20044;-73
2023/07/28 04:48:27;;;;;;;21.67;18.67;;;;;;;16.76;100.00;100413.50;5286045;28;20031;-74
2023/07/28 04:50:59;;;;;;;21.07;17.80;;;;;;;16.78;100.00;100416.06;5286107;28;20052;-74
2023/07/28 04:53:30;;;;;;;21.80;17.83;;;;;;;16.77;100.00;100415.19;5286099;28;20027;-73
2023/07/28 04:56:03;;;;;;;22.73;16.93;;;;;;;16.81;100.00;100415.06;5301727;28;20170;-74
2023/07/28 04:58:34;;;;;;;;;;;;;;;16.85;100.00;100421.91;5286510;28;20480;-74
2023/07/28 05:01:08;;;;;;;25.77;18.98;;;;;;;16.83;100.00;100415.84;5285613;28;19920;-73
2023/07/28 05:03:40;;;;;;;25.58;18.15;;;;;;;16.87;100.00;100422.72;5285851;28;20107;-73
2023/07/28 05:06:11;;;;;;;21.90;17.97;;;;;;;16.89;100.00;100423.53;5285390;28;20123;-74
2023/07/28 05:08:43;;;;;;;26.17;18.60;;;;;;;16.92;100.00;100418.97;5285847;28;20020;-73
2023/07/28 05:11:14;;;;;;;23.83;18.70;;;;;;;16.93;100.00;100425.06;5285892;28;20464;-73
2023/07/28 05:13:45;;;;;;;26.87;19.20;;;;;;;16.95;100.00;100428.47;5285830;28;20056;-73
2023/07/28 05:16:17;;;;;;;21.73;17.80;;;;;;;16.99;100.00;100429.22;5285312;28;20040;-73
2023/07/28 05:18:48;;;;;;;22.00;18.50;;;;;;;17.02;100.00;100437.00;5285324;28;20070;-73
2023/07/28 05:21:20;;;;;;;26.87;18.07;;;;;;;17.00;100.00;100436.19;5285505;28;20116;-73
2023/07/28 05:23:51;;;;;;;23.53;17.73;;;;;;;17.01;100.00;100441.38;5283927;28;20032;-73
2023/07/28 05:26:22;;;;;;;24.43;18.83;;;;;;;17.08;100.00;100440.19;5285449;28;20379;-73
2023/07/28 05:28:54;;;;;;;24.23;18.27;;;;;;;17.08;100.00;100448.09;5285681;28;20107;-73
2023/07/28 05:31:25;;;;;;;22.57;17.60;;;;;;;17.12;100.00;100449.66;5285110;28;20061;-73
2023/07/28 05:33:56;;;;;;;22.07;18.40;;;;;;;17.13;100.00;100448.72;5285034;28;20024;-74
2023/07/28 05:36:28;;;;;;;22.77;20.23;;;;;;;17.14;100.00;100453.06;5285204;28;20028;-74
2023/07/28 05:39:00;;;;;;;22.45;19.88;;;;;;;17.14;100.00;100458.31;5284050;28;20113;-73
2023/07/28 05:41:32;;;;;;;22.47;20.07;;;;;;;17.25;100.00;100462.25;5284999;28;20025;-73
2023/07/28 05:44:03;;;;;;;25.67;20.58;;;;;;;17.28;100.00;100462.13;5284958;28;20114;-74
2023/07/28 05:46:35;;;;;;;25.47;22.90;;;;;;;17.27;100.00;100465.69;5284234;28;20079;-74
2023/07/28 05:49:06;;;;;;;27.17;23.60;;;;;;;17.29;100.00;100463.81;5283673;28;20455;-74
2023/07/28 05:51:38;;;;;;;28.07;25.00;;;;;;;17.30;100.00;100469.00;5284934;28;20119;-74
2023/07/28 05:54:09;;;;;;;33.30;28.33;;;;;;;17.31;100.00;100468.09;5284947;28;20021;-74
2023/07/28 05:56:41;;;;;;;33.53;26.90;;;;;;;17.33;100.00;100472.47;5284886;28;20112;-72
2023/07/28 05:59:12;;;;;;;32.80;27.73;;;;;;;17.37;100.00;100481.91;5284689;28;20024;-73
2023/07/28 06:01:44;;;;;;;33.30;29.53;;;;;;;17.37;100.00;100472.25;5284052;28;20074;-74
2023/07/28 06:04:16;;;;;;;33.75;29.80;;;;;;;17.38;100.00;100468.66;5284705;28;20024;-73
2023/07/28 06:06:47;;;;;;;34.37;30.53;;;;;;;17.41;100.00;100479.06;5284593;28;20028;-74
2023/07/28 06:09:19;;;;;;;41.03;32.90;;;;;;;17.39;100.00;100474.78;5284508;28;20074;-74
2023/07/28 06:11:50;;;;;;;39.60;32.40;;;;;;;17.39;100.00;100472.16;5284533;28;20068;-77
2023/07/28 06:14:22;;;;;;;39.60;33.47;;;;;;;17.43;100.00;100474.56;5283936;28;20051;-75
2023/07/28 06:16:53;;;;;;;40.03;32.53;;;;;;;17.49;100.00;100471.66;5282816;28;20099;-75
2023/07/28 06:19:24;;;;;;;43.00;32.87;;;;;;;17.51;100.00;100471.59;5283625;28;20017;-74
2023/07/28 06:21:56;;;;;;;42.97;32.67;;;;;;;17.57;100.00;100471.31;5284283;28;20085;-74
2023/07/28 06:24:27;;;;;;;37.63;30.33;;;;;;;17.58;100.00;100472.16;5282864;28;20028;-75
2023/07/28 06:26:59;;;;;;;36.90;30.00;;;;;;;17.64;100.00;100471.88;5282970;28;20111;-75
2023/07/28 06:29:30;;;;;;;34.67;28.98;;;;;;;17.63;100.00;100480.72;5282750;28;20059;-75
2023/07/28 06:32:02;;;;;;;31.43;25.70;;;;;;;17.57;100.00;100475.75;5282451;28;20028;-74
2023/07/28 06:34:33;;;;;;;31.02;24.73;;;;;;;17.64;100.00;100485.91;5282302;28;20027;-74
2023/07/28 06:37:05;;;;;;;26.37;22.23;;;;;;;17.65;100.00;100486.78;5283883;28;20468;-74
2023/07/28 06:39:36;;;;;;;29.02;22.80;;;;;;;17.71;100.00;100491.75;5283106;28;20546;-75
2023/07/28 06:42:08;;;;;;;26.87;21.93;;;;;;;17.79;100.00;100486.09;5283234;28;20388;-74
2023/07/28 06:44:39;;;;;;;31.30;20.93;;;;;;;17.88;100.00;100490.13;5282559;28;20432;-74
2023/07/28 06:47:10;;;;;;;25.60;21.37;;;;;;;17.95;100.00;100499.44;5283351;28;20040;-75
2023/07/28 06:49:42;;;;;;;25.77;20.97;;;;;;;17.93;100.00;100502.16;5282760;28;20078;-75
2023/07/28 06:52:13;;;;;;;25.47;20.27;;;;;;;17.85;100.00;100502.50;5283770;28;20032;-74
2023/07/28 06:54:47;;;;;;;27.60;19.93;;;;;;;17.83;100.00;100503.50;5281366;28;20024;-74
2023/07/28 06:57:18;;;;;;;24.40;18.25;;;;;;;17.80;100.00;100501.84;5298951;28;20035;-74
2023/07/28 06:59:50;;;;;;;26.87;18.50;;;;;;;17.81;100.00;100502.72;5282935;28;20024;-74
2023/07/28 07:02:22;;;;;;;22.60;17.42;;;;;;;17.90;100.00;100504.09;5283550;28;20021;-74
2023/07/28 07:04:53;;;;;;;25.67;17.83;;;;;;;17.92;100.00;100513.63;5281959;28;20028;-74
2023/07/28 07:07:25;;;;;;;19.80;16.70;;;;;;;17.94;100.00;100514.41;5282196;28;20028;-74
2023/07/28 07:09:57;;;;;;;17.92;15.38;;;;;;;17.95;100.00;100516.13;5282568;28;20495;-75
2023/07/28 07:12:28;;;;;;;22.80;16.97;;;;;;;17.99;100.00;100519.47;5282243;28;20036;-75
2023/07/28 07:14:59;;;;;;;20.97;15.83;;;;;;;17.99;100.00;100516.84;5281351;28;20368;-75
2023/07/28 07:17:31;;;;;;;18.80;15.20;;;;;;;18.03;100.00;100519.25;5282792;28;20498;-75
2023/07/28 07:20:02;;;;;;;16.00;13.53;;;;;;;18.07;100.00;100527.88;5282715;28;20031;-74
2023/07/28 07:22:34;;;;;;;16.73;14.17;;;;;;;18.17;100.00;100531.75;5283153;28;20024;-73
2023/07/28 07:25:07;;;;;;;16.97;13.40;;;;;;;18.21;100.00;100529.84;5264540;28;20029;-74
2023/07/28 07:27:38;;;;;;;15.57;13.63;;;;;;;18.16;100.00;100534.47;5282748;28;20456;-76
2023/07/28 07:30:09;;;;;;;14.60;13.10;;;;;;;18.19;100.00;100532.56;5282470;28;20063;-75
2023/07/28 07:32:41;;;;;;;14.70;12.23;;;;;;;18.23;100.00;100530.63;5282659;28;20032;-75
2023/07/28 07:35:12;;;;;;;12.80;11.30;;;;;;;18.28;100.00;100530.41;5282557;28;20048;-75
2023/07/28 07:37:44;;;;;;;13.57;11.43;;;;;;;18.37;100.00;100535.19;5282506;28;20097;-76
2023/07/28 07:40:15;;;;;;;12.63;10.23;;;;;;;18.38;100.00;100547.47;5283163;28;20031;-75
2023/07/28 07:42:48;;;;;;;15.43;11.13;;;;;;;18.46;100.00;100537.38;5282130;28;20036;-74
2023/07/28 07:45:19;;;;;;;13.85;10.00;;;;;;;18.52;100.00;100541.53;5282349;28;20048;-76
2023/07/28 07:47:51;;;;;;;12.07;8.80;;;;;;;18.55;100.00;100538.72;5282096;28;20496;-75
2023/07/28 07:50:22;;;;;;;10.77;9.57;;;;;;;18.56;100.00;100540.44;5282871;28;20037;-74
2023/07/28 07:52:54;;;;;;;11.65;8.25;;;;;;;18.67;100.00;100539.91;5282452;28;20422;-75
2023/07/28 07:55:25;;;;;;;11.50;8.83;;;;;;;18.67;100.00;100546.03;5282672;28;20082;-74
2023/07/28 07:57:57;;;;;;;11.17;8.83;;;;;;;18.73;100.00;100545.72;5282236;28;20036;-75
2023/07/28 08:00:28;;;;;;;8.48;7.40;;;;;;;18.76;100.00;100545.56;5282691;28;20083;-75
2023/07/28 08:03:00;;;;;;;11.03;7.97;;;;;;;18.77;100.00;100552.56;5281838;28;20112;-75
2023/07/28 08:05:31;;;;;;;9.60;8.60;;;;;;;18.76;100.00;100552.63;5264532;28;20032;-74
2023/07/28 08:08:03;;;;;;;10.80;7.67;;;;;;;18.79;100.00;100552.47;5281735;28;20086;-75
2023/07/28 08:10:34;;;;;;;10.23;7.25;;;;;;;18.82;100.00;100554.97;5282536;28;20053;-75
2023/07/28 08:13:06;;;;;;;8.87;7.97;;;;;;;18.75;100.00;100553.56;5282311;28;20173;-75
2023/07/28 08:15:37;;;;;;;12.83;8.10;;;;;;;18.74;100.00;100555.34;5282211;28;20078;-74
2023/07/28 08:18:08;;;;;;;8.63;7.73;;;;;;;18.82;100.00;100549.69;5281816;28;20079;-75
2023/07/28 08:20:40;;;;;;;8.63;7.53;;;;;;;18.72;100.00;100561.63;5282498;28;20090;-75
2023/07/28 08:23:12;;;;;;;7.38;6.68;;;;;;;18.76;100.00;100563.19;5281943;28;20067;-74
2023/07/28 08:25:43;;;;;;;8.03;6.80;;;;;;;18.82;100.00;100565.53;5281699;28;20024;-74
2023/07/28 08:28:14;;;;;;;7.57;6.30;;;;;;;18.89;100.00;100561.66;5280424;28;20064;-74
2023/07/28 08:30:55;;;;;;;7.27;6.00;;;;;;;18.89;100.00;100569.59;5282580;28;20035;-75
2023/07/28 08:33:27;;;;;;;7.13;5.68;;;;;;;18.90;100.00;100573.94;5281242;28;20021;-75
2023/07/28 08:35:58;;;;;;;6.38;5.80;;;;;;;19.16;100.00;100576.16;5281221;28;20043;-75
2023/07/28 08:38:29;;;;;;;7.60;5.50;;;;;;;19.43;100.00;100579.16;5281119;28;20055;-75
2023/07/28 08:41:01;;;;;;;5.93;5.37;;;;;;;19.72;100.00;100574.09;5281436;28;20426;-74
2023/07/28 08:43:32;;;;;;;4.97;4.47;;;;;;;19.80;100.00;100577.19;5283488;28;20537;-74
2023/07/28 08:46:04;;;;;;;7.30;4.53;;;;;;;20.01;100.00;100577.81;5285979;28;20074;-75
2023/07/28 08:48:35;;;;;;;5.17;4.53;;;;;;;20.23;100.00;100585.41;5285926;28;20411;-74
2023/07/28 08:51:08;;;;;;;8.63;4.23;;;;;;;20.34;100.00;100585.66;5280922;28;20118;-74
2023/07/28 08:53:40;;;;;;;5.00;4.38;;;;;;;20.37;100.00;100588.13;5283718;28;20064;-75
2023/07/28 08:56:11;;;;;;;6.47;3.95;;;;;;;20.76;100.00;100578.84;5285106;28;20550;-75
2023/07/28 08:58:42;;;;;;;4.67;3.70;;;;;;;20.93;100.00;100587.59;5282710;28;20037;-75
2023/07/28 09:01:14;;;;;;;4.57;3.47;;;;;;;21.29;100.00;100579.22;5285238;28;20025;-75
2023/07/28 09:03:47;;;;;;;4.07;3.67;;;;;;;21.53;98.40;100589.31;5284377;28;20144;-75
2023/07/28 09:06:19;;;;;;;5.43;4.65;;;;;;;21.66;97.56;100587.59;5282818;28;20480;-74
2023/07/28 09:08:50;;;;;;;;;;;;;;;22.21;98.19;100588.53;5282509;28;20482;-75
2023/07/28 09:11:26;;;;;;;6.27;4.63;;;;;;;21.82;94.91;100594.59;5283205;28;19916;-74
2023/07/28 09:14:00;;;;;;;7.57;4.78;;;;;;;21.97;93.01;100590.09;5281805;28;20078;-75
2023/07/28 09:16:32;;;;;;;5.72;4.32;;;;;;;21.96;92.27;100585.75;5282365;28;20482;-74
2023/07/28 09:19:06;;;;;;;6.18;5.03;;;;;;;22.53;93.85;100590.91;5281905;28;20105;-75
2023/07/28 09:21:40;;;;;;;5.20;4.80;;;;;;;22.78;89.35;100599.88;5282653;28;20032;-75
2023/07/28 09:24:13;;;;;;;5.10;4.60;;;;;;;22.70;87.01;100599.56;5283616;28;20028;-72
2023/07/28 09:26:50;;;;;;;5.43;4.93;;;;;;;22.18;87.65;100602.00;5283220;28;20035;-75
2023/07/28 09:29:23;;;;;;;4.75;4.25;;;;;;;22.58;88.66;100601.22;5270018;28;20036;-72
2023/07/28 09:32:06;;;;;;;5.18;4.68;;;;;;;22.46;88.49;100597.59;5277100;28;20110;-75
2023/07/28 09:34:37;;;;;;;5.43;4.90;;;;;;;22.37;88.26;100599.03;5274362;28;20484;-72
2023/07/28 09:37:09;;;;;;;5.70;5.10;;;;;;;22.27;89.53;100589.94;5264512;28;20156;-75
2023/07/28 09:39:41;;;;;;;5.00;4.50;;;;;;;22.21;89.42;100585.03;5274435;28;20056;-75
2023/07/28 09:42:13;;;;;;;5.10;4.13;;;;;;;22.31;89.52;100593.28;5279024;28;20056;-75
2023/07/28 09:44:45;;;;;;;5.03;4.47;;;;;;;22.34;88.03;100593.91;5282219;28;20490;-73
2023/07/28 09:47:18;;;;;;;5.03;4.53;;;;;;;22.58;88.77;100599.41;5281197;28;20052;-75
2023/07/28 09:49:52;;;;;;;4.60;4.00;;;;;;;22.57;86.51;100592.41;5274012;28;20095;-75
2023/07/28 09:52:26;;;;;;;4.07;3.60;;;;;;;22.73;86.20;100599.34;5283102;28;20277;-74
2023/07/28 09:55:00;;;;;;;5.13;3.03;;;;;;;22.90;85.20;100593.75;5280006;28;20028;-75
2023/07/28 09:57:39;;;;;;;3.53;3.03;;;;;;;23.67;84.09;100595.63;5283707;28;20046;-74
2023/07/28 10:00:13;;;;;;;3.88;3.35;;;;;;;23.46;81.84;100597.97;5283207;28;20063;-74
2023/07/28 10:02:45;;;;;;;2.70;2.50;;;;;;;23.30;81.85;100604.34;5283067;28;20047;-74
2023/07/28 10:05:16;;;;;;;2.55;2.35;;;;;;;23.10;84.58;100592.44;5284448;28;20036;-75
2023/07/28 10:07:49;;;;;;;2.67;2.47;;;;;;;22.82;82.90;100606.72;5283644;28;20534;-74
2023/07/28 10:10:20;;;;;;;;;;;;;;;22.98;86.21;100597.72;5284187;28;20023;-79
2023/07/28 10:12:54;;;;;;;3.83;2.80;;;;;;;22.78;85.50;100605.22;5284674;28;19908;-77
2023/07/28 10:15:31;;;;;;;2.75;2.35;;;;;;;22.75;86.82;100602.78;5282993;28;20082;-75
2023/07/28 10:18:06;;;;;;;4.03;3.33;;;;;;;22.71;86.39;100609.25;5282308;28;20521;-74
2023/07/28 10:20:40;;;;;;;3.92;3.50;;;;;;;22.70;85.90;100610.19;5284168;28;20494;-72
2023/07/28 10:23:24;;;;;;;7.50;3.28;;;;;;;22.52;85.85;100607.81;5282698;28;20121;-75
2023/07/28 10:26:01;;;;;;;4.50;3.38;;;;;;;22.72;84.44;100609.13;5282930;28;20154;-74
2023/07/28 10:28:42;;;;;;;5.45;3.55;;;;;;;23.07;83.67;100602.38;5282446;28;20016;-74
2023/07/28 10:31:16;;;;;;;3.47;3.00;;;;;;;23.57;80.58;100602.53;5283219;28;20024;-75
2023/07/28 10:33:48;;;;;;;3.42;3.00;;;;;;;23.83;79.91;100608.72;5282636;28;20032;-74
2023/07/28 10:36:22;;;;;;;3.28;2.97;;;;;;;24.24;78.92;100610.19;5282768;28;20036;-76
2023/07/28 10:39:19;;;;;;;4.80;2.30;;;;;;;24.43;76.20;100611.50;5281580;28;20044;-75
2023/07/28 10:42:08;;;;;;;4.38;2.45;;;;;;;24.74;75.16;100607.41;5283241;28;20460;-75
2023/07/28 10:44:40;;;;;;;2.60;2.10;;;;;;;25.16;70.85;100604.25;5281636;28;20024;-76
2023/07/28 10:47:12;;;;;;;1.95;1.75;;;;;;;25.26;67.59;100598.09;5282602;28;20052;-75
2023/07/28 10:49:47;;;;;;;2.80;1.80;;;;;;;25.31;68.93;100600.47;5282463;28;20037;-75
2023/07/28 10:52:18;;;;;;;2.17;2.00;;;;;;;25.25;67.43;100609.75;5283165;28;20040;-76
2023/07/28 10:54:49;;;;;;;1.92;1.83;;;;;;;25.60;66.98;100598.16;5282048;28;20491;-76
2023/07/28 10:57:21;;;;;;;1.97;1.80;;;;;;;25.65;68.78;100590.63;5282637;28;20516;-74
2023/07/28 10:59:52;;;;;;;3.83;2.00;;;;;;;25.73;67.46;100592.69;5282450;28;20079;-74
2023/07/28 11:02:26;;;;;;;2.07;1.97;;;;;;;26.36;63.85;100595.63;5282833;28;20537;-74
2023/07/28 11:04:58;;;;;;;2.85;1.85;;;;;;;27.73;58.79;100596.53;5281678;28;20448;-75
2023/07/28 11:07:29;;;;;;;3.30;2.25;;;;;;;27.72;58.07;100600.19;5282622;28;20103;-74
2023/07/28 11:10:02;;;;;;;2.30;1.77;;;;;;;27.87;56.36;100598.00;5282179;28;20467;-73
2023/07/28 11:12:33;;;;;;;1.85;1.63;;;;;;;28.82;52.69;100590.38;5282524;28;20262;-74
2023/07/28 11:15:06;;;;;;;;;;;;;;;29.46;54.83;100587.00;5281529;28;20388;-73
2023/07/28 11:17:39;;;;;;;1.98;1.88;;;;;;;28.46;53.92;100585.56;5282008;28;20408;-74
2023/07/28 11:20:18;;;;;;;1.85;1.70;;;;;;;28.24;54.61;100589.38;5282344;28;20031;-72
2023/07/28 11:22:54;;;;;;;2.28;1.65;;;;;;;29.35;50.92;100592.56;5281600;28;20035;-73
2023/07/28 11:25:28;;;;;;;1.73;1.60;;;;;;;30.15;48.57;100584.78;5270182;28;20032;-73
2023/07/28 11:28:06;;;;;;;2.22;1.50;;;;;;;30.32;46.64;100587.66;5281599;28;20641;-75
2023/07/28 11:30:38;;;;;;;1.65;1.50;;;;;;;29.58;47.38;100581.44;5282409;28;20106;-73
2023/07/28 11:33:12;;;;;;;;;;;;;;;31.23;46.23;100579.31;5281843;28;20079;-74